Time;durP1;ratioP1;P1;durP2;ratioP2;P2;SDS_P1;SDS_P2;PMS_P1;PMS_P2;Temp;Humidity;BMP_temperature;BMP_pressure;BME280_temperature;BME280_humidity;BME280_pressure;Samples;Min_cycle;Max_cycle;Signal;HPM_P1;HPM_P2
2023/03/02 00:02:27;;;;;;;37.90;21.17;;;;;;;;;;5116584;28;20458;-72
2023/03/02 00:04:57;;;;;;;27.63;13.57;;;;;;;;;;5116242;28;20479;-72
2023/03/02 00:07:27;;;;;;;29.10;14.77;;;;;;;;;;5116844;28;20452;-72
2023/03/02 00:09:56;;;;;;;23.97;12.57;;;;;;;;;;5116568;28;20476;-72
2023/03/02 00:12:23;;;;;;;24.07;12.73;;;;;;;;;;5116986;28;20453;-72
2023/03/02 00:14:50;;;;;;;31.80;15.67;;;;;;;;;;5116011;28;20456;-72
2023/03/02 00:17:17;;;;;;;28.10;16.33;;;;;;;;;;5116377;28;20469;-72
2023/03/02 00:19:44;;;;;;;30.60;15.43;;;;;;;;;;5116244;28;20846;-71
2023/03/02 00:22:11;;;;;;;37.03;19.73;;;;;;;;;;5116440;28;20943;-71
2023/03/02 00:24:39;;;;;;;36.10;18.10;;;;;;;;;;5116283;28;20456;-72
2023/03/02 00:27:07;;;;;;;26.20;15.20;;;;;;;;;;5116424;28;20469;-71
2023/03/02 00:29:34;;;;;;;33.83;19.77;;;;;;;;;;5116146;28;20452;-71
2023/03/02 00:32:02;;;;;;;38.47;18.50;;;;;;;;;;5116191;28;20457;-72
2023/03/02 00:34:31;;;;;;;22.87;13.10;;;;;;;;;;5116491;28;20461;-71
2023/03/02 00:36:58;;;;;;;38.17;17.70;;;;;;;;;;5116124;28;20513;-72
2023/03/02 00:39:25;;;;;;;23.90;11.13;;;;;;;;;;5115978;28;20492;-72
2023/03/02 00:41:52;;;;;;;24.40;12.73;;;;;;;;;;5116106;28;20457;-71
2023/03/02 00:44:20;;;;;;;30.97;13.90;;;;;;;;;;5114458;28;20449;-71
2023/03/02 00:46:48;;;;;;;33.03;17.37;;;;;;;;;;5116005;28;20460;-71
2023/03/02 00:49:15;;;;;;;40.30;18.73;;;;;;;;;;5115381;28;20457;-71
2023/03/02 00:51:42;;;;;;;29.27;15.27;;;;;;;;;;5115912;28;20465;-72
2023/03/02 00:54:09;;;;;;;22.13;13.27;;;;;;;;;;5115349;28;20461;-72
2023/03/02 00:56:36;;;;;;;38.60;19.90;;;;;;;;;;5115793;28;20453;-72
2023/03/02 00:59:09;;;;;;;27.60;14.40;;;;;;;;;;5115700;28;21019;-72
2023/03/02 01:01:38;;;;;;;33.37;18.20;;;;;;;;;;5115894;28;20473;-71
2023/03/02 01:04:06;;;;;;;33.23;18.83;;;;;;;;;;5114873;28;20472;-71
2023/03/02 01:06:33;;;;;;;39.07;17.43;;;;;;;;;;5115827;28;20453;-71
2023/03/02 01:09:00;;;;;;;24.57;14.27;;;;;;;;;;5115427;28;20446;-72
2023/03/02 01:11:27;;;;;;;31.53;15.97;;;;;;;;;;5115430;28;20973;-71
2023/03/02 01:13:54;;;;;;;28.60;17.23;;;;;;;;;;5115428;28;20452;-72
2023/03/02 01:16:21;;;;;;;33.83;15.90;;;;;;;;;;5115353;28;20956;-72
2023/03/02 01:18:49;;;;;;;34.47;16.20;;;;;;;;;;5115288;28;20493;-72
2023/03/02 01:21:17;;;;;;;34.50;18.07;;;;;;;;;;5115295;28;20829;-72
2023/03/02 01:23:44;;;;;;;32.33;18.97;;;;;;;;;;5114883;28;20450;-72
2023/03/02 01:26:11;;;;;;;38.47;17.30;;;;;;;;;;5115297;28;20451;-71
2023/03/02 01:28:38;;;;;;;37.43;18.93;;;;;;;;;;5115005;28;20461;-71
2023/03/02 01:31:05;;;;;;;26.80;14.97;;;;;;;;;;5115084;28;20468;-71
2023/03/02 01:33:33;;;;;;;32.20;17.50;;;;;;;;;;5115018;28;20449;-72
2023/03/02 01:36:01;;;;;;;32.37;18.37;;;;;;;;;;5115150;28;20808;-71
2023/03/02 01:38:28;;;;;;;34.93;17.37;;;;;;;;;;5114930;28;20493;-72
2023/03/02 01:40:55;;;;;;;34.70;20.23;;;;;;;;;;5114999;28;20480;-72
2023/03/02 01:43:22;;;;;;;32.77;18.30;;;;;;;;;;5114857;28;20442;-72
2023/03/02 01:45:52;;;;;;;27.90;16.00;;;;;;;;;;5114858;28;20456;-72
2023/03/02 01:48:20;;;;;;;36.87;18.53;;;;;;;;;;5114813;28;20450;-71
2023/03/02 01:50:48;;;;;;;28.77;15.60;;;;;;;;;;5114778;28;20474;-72
2023/03/02 01:53:16;;;;;;;30.30;17.43;;;;;;;;;;5114679;28;20441;-72
2023/03/02 01:55:45;;;;;;;36.50;17.57;;;;;;;;;;5114202;28;20947;-71
2023/03/02 01:58:14;;;;;;;26.40;15.10;;;;;;;;;;5114143;28;20986;-72
2023/03/02 02:00:41;;;;;;;21.17;12.77;;;;;;;;;;5114589;28;20474;-71
2023/03/02 02:03:11;;;;;;;32.13;15.60;;;;;;;;;;5114022;28;20462;-71
2023/03/02 02:05:39;;;;;;;30.27;16.17;;;;;;;;;;5113972;28;20453;-72
2023/03/02 02:08:07;;;;;;;29.00;15.23;;;;;;;;;;5114443;28;20946;-72
2023/03/02 02:10:36;;;;;;;27.53;15.00;;;;;;;;;;5114340;28;20966;-71
2023/03/02 02:13:03;;;;;;;32.30;15.97;;;;;;;;;;5114361;28;20449;-71
2023/03/02 02:15:30;;;;;;;29.10;15.00;;;;;;;;;;5114465;28;20469;-71
2023/03/02 02:17:57;;;;;;;33.57;14.73;;;;;;;;;;5114073;28;20453;-72
2023/03/02 02:20:29;;;;;;;27.07;17.37;;;;;;;;;;5114229;28;20975;-71
2023/03/02 02:22:59;;;;;;;18.60;9.90;;;;;;;;;;5114232;28;20450;-72
2023/03/02 02:25:38;;;;;;;30.13;16.20;;;;;;;;;;5113832;28;20813;-71
2023/03/02 02:28:11;;;;;;;36.20;19.13;;;;;;;;;;5114195;28;20942;-72
2023/03/02 02:30:41;;;;;;;39.10;17.80;;;;;;;;;;5113972;28;20982;-72
2023/03/02 02:33:08;;;;;;;31.33;16.10;;;;;;;;;;5113621;28;20839;-72
2023/03/02 02:35:37;;;;;;;26.53;15.13;;;;;;;;;;5113794;28;20449;-72
2023/03/02 02:38:06;;;;;;;40.90;17.33;;;;;;;;;;5113524;28;20464;-72
2023/03/02 02:40:42;;;;;;;34.40;16.83;;;;;;;;;;5113941;28;20469;-71
2023/03/02 02:43:13;;;;;;;33.57;14.20;;;;;;;;;;5113825;28;20453;-71
2023/03/02 02:45:40;;;;;;;32.30;18.00;;;;;;;;;;5113638;28;20450;-71
2023/03/02 02:48:09;;;;;;;25.80;15.93;;;;;;;;;;5113566;28;20458;-72
2023/03/02 02:50:36;;;;;;;34.57;17.23;;;;;;;;;;5113755;28;20978;-71
2023/03/02 02:53:06;;;;;;;18.13;11.03;;;;;;;;;;5113599;28;20457;-73
2023/03/02 02:55:33;;;;;;;32.23;14.20;;;;;;;;;;5113559;28;20801;-71
2023/03/02 02:58:08;;;;;;;33.90;15.40;;;;;;;;;;5113510;28;20454;-72
2023/03/02 03:00:37;;;;;;;30.30;12.77;;;;;;;;;;5113599;28;20477;-71
2023/03/02 03:03:27;;;;;;;36.60;15.97;;;;;;;;;;5113332;28;21098;-71
2023/03/02 03:05:54;;;;;;;28.93;15.67;;;;;;;;;;5113339;28;20469;-72
2023/03/02 03:08:40;;;;;;;36.10;16.30;;;;;;;;;;5112574;28;20445;-72
2023/03/02 03:11:08;;;;;;;38.60;18.87;;;;;;;;;;5113202;28;21041;-73
2023/03/02 03:13:36;;;;;;;35.47;16.10;;;;;;;;;;5112994;28;20532;-72
2023/03/02 03:16:06;;;;;;;26.53;16.80;;;;;;;;;;5113236;28;20484;-72
2023/03/02 03:18:33;;;;;;;29.03;17.23;;;;;;;;;;5113166;28;20481;-71
2023/03/02 03:21:01;;;;;;;37.23;18.63;;;;;;;;;;5113166;28;20466;-72
2023/03/02 03:23:28;;;;;;;38.97;16.90;;;;;;;;;;5113543;28;20454;-72
2023/03/02 03:25:56;;;;;;;31.43;15.87;;;;;;;;;;5113163;28;20449;-72
2023/03/02 03:28:23;;;;;;;26.77;15.17;;;;;;;;;;5113310;28;20441;-71
2023/03/02 03:30:50;;;;;;;35.33;16.73;;;;;;;;;;5112993;28;20469;-72
2023/03/02 03:33:19;;;;;;;34.43;17.97;;;;;;;;;;5113134;28;20489;-71
2023/03/02 03:35:46;;;;;;;31.93;16.83;;;;;;;;;;5112676;28;20454;-72
2023/03/02 03:38:14;;;;;;;27.53;15.20;;;;;;;;;;5112954;28;20979;-71
2023/03/02 03:40:41;;;;;;;33.80;15.37;;;;;;;;;;5112923;28;20488;-71
2023/03/02 03:43:11;;;;;;;34.00;14.87;;;;;;;;;;5112692;28;20456;-72
2023/03/02 03:45:38;;;;;;;34.17;16.43;;;;;;;;;;5113061;28;20458;-71
2023/03/02 03:48:06;;;;;;;28.17;14.00;;;;;;;;;;5112732;28;20503;-71
2023/03/02 03:50:34;;;;;;;33.20;17.67;;;;;;;;;;5112873;28;20476;-71
2023/03/02 03:53:01;;;;;;;36.53;18.17;;;;;;;;;;5112970;28;20456;-71
2023/03/02 03:55:29;;;;;;;37.37;18.87;;;;;;;;;;5112967;28;21001;-71
2023/03/02 03:57:56;;;;;;;37.00;17.33;;;;;;;;;;5112939;28;20461;-73
2023/03/02 04:00:24;;;;;;;39.77;17.70;;;;;;;;;;5112667;28;20494;-72
2023/03/02 04:02:51;;;;;;;33.27;18.13;;;;;;;;;;5112921;28;20537;-72
2023/03/02 04:05:18;;;;;;;41.50;18.57;;;;;;;;;;5112241;28;20466;-71
2023/03/02 04:07:47;;;;;;;32.00;15.90;;;;;;;;;;5112911;28;20821;-71
2023/03/02 04:10:14;;;;;;;30.00;17.33;;;;;;;;;;5112605;28;20470;-71
2023/03/02 04:12:42;;;;;;;38.53;18.90;;;;;;;;;;5112747;28;20809;-71
2023/03/02 04:15:13;;;;;;;29.70;16.77;;;;;;;;;;5112556;28;20485;-71
2023/03/02 04:17:42;;;;;;;32.93;18.53;;;;;;;;;;5112992;28;20450;-71
2023/03/02 04:20:13;;;;;;;31.50;15.67;;;;;;;;;;5115797;28;21066;-71
2023/03/02 04:22:40;;;;;;;30.47;11.63;;;;;;;;;;5116803;28;20480;-72
2023/03/02 04:25:09;;;;;;;41.37;17.13;;;;;;;;;;5115586;28;20463;-71
2023/03/02 04:27:36;;;;;;;37.63;16.70;;;;;;;;;;5116583;28;20969;-72
2023/03/02 04:30:03;;;;;;;23.00;13.20;;;;;;;;;;5116085;28;20465;-72
2023/03/02 04:32:31;;;;;;;20.03;11.53;;;;;;;;;;5116392;28;20457;-72
2023/03/02 04:34:58;;;;;;;21.33;11.87;;;;;;;;;;5116172;28;20810;-72
2023/03/02 04:37:25;;;;;;;23.73;12.70;;;;;;;;;;5116102;28;21018;-72
2023/03/02 04:39:52;;;;;;;33.47;20.07;;;;;;;;;;5115998;28;20576;-71
2023/03/02 04:42:21;;;;;;;37.60;18.67;;;;;;;;;;5116086;28;20455;-71
2023/03/02 04:44:49;;;;;;;32.27;15.27;;;;;;;;;;5115791;28;20457;-71
2023/03/02 04:47:17;;;;;;;34.13;15.17;;;;;;;;;;5116147;28;20578;-71
2023/03/02 04:49:44;;;;;;;30.00;14.50;;;;;;;;;;5115895;28;20469;-72
2023/03/02 04:52:12;;;;;;;32.70;17.00;;;;;;;;;;5115849;28;20449;-72
2023/03/02 04:54:39;;;;;;;32.90;15.10;;;;;;;;;;5115443;28;20457;-72
2023/03/02 04:57:07;;;;;;;36.30;13.60;;;;;;;;;;5116048;28;20847;-72
2023/03/02 04:59:36;;;;;;;42.77;19.43;;;;;;;;;;5115295;28;20486;-72
2023/03/02 05:02:03;;;;;;;43.50;19.60;;;;;;;;;;5115806;28;20450;-71
2023/03/02 05:04:31;;;;;;;33.50;16.90;;;;;;;;;;5115311;28;20525;-72
2023/03/02 05:06:59;;;;;;;41.57;19.70;;;;;;;;;;5115694;28;20942;-72
2023/03/02 05:09:29;;;;;;;40.70;18.43;;;;;;;;;;5115623;28;21014;-71
2023/03/02 05:11:56;;;;;;;46.20;17.77;;;;;;;;;;5115460;28;20511;-71
2023/03/02 05:14:24;;;;;;;38.90;16.63;;;;;;;;;;5115255;28;20958;-71
2023/03/02 05:16:52;;;;;;;30.33;17.73;;;;;;;;;;5115424;28;20481;-71
2023/03/02 05:19:19;;;;;;;26.57;13.43;;;;;;;;;;5115199;28;20965;-71
2023/03/02 05:21:47;;;;;;;36.80;21.33;;;;;;;;;;5115304;28;20994;-71
2023/03/02 05:24:14;;;;;;;39.57;20.23;;;;;;;;;;5114991;28;20457;-72
2023/03/02 05:26:41;;;;;;;43.53;19.07;;;;;;;;;;5115255;28;20823;-72
2023/03/02 05:29:08;;;;;;;41.63;20.53;;;;;;;;;;5114527;28;20939;-72
2023/03/02 05:31:37;;;;;;;40.03;17.70;;;;;;;;;;5114764;28;20470;-71
2023/03/02 05:34:07;;;;;;;38.23;18.80;;;;;;;;;;5114846;28;20502;-71
2023/03/02 05:36:35;;;;;;;38.40;20.37;;;;;;;;;;5115169;28;20446;-71
2023/03/02 05:42:22;;;;;;;41.20;22.77;;;;;;;;;;5154506;27;20505;-70
2023/03/02 05:44:49;;;;;;;38.80;20.30;;;;;;;;;;5130995;28;20823;-70
2023/03/02 05:47:17;;;;;;;48.40;20.57;;;;;;;;;;5131101;27;20853;-70
2023/03/02 05:49:44;;;;;;;38.17;18.07;;;;;;;;;;5131156;28;20989;-70
2023/03/02 05:52:12;;;;;;;41.87;21.07;;;;;;;;;;5131061;27;20441;-70
2023/03/02 05:54:39;;;;;;;36.57;19.07;;;;;;;;;;5130839;27;20460;-71
2023/03/02 05:57:07;;;;;;;40.53;21.80;;;;;;;;;;5130975;27;20441;-70
2023/03/02 05:59:37;;;;;;;48.40;20.53;;;;;;;;;;5130920;27;21005;-70
2023/03/02 06:02:04;;;;;;;41.10;21.73;;;;;;;;;;5130872;27;20491;-71
2023/03/02 06:04:32;;;;;;;37.83;19.23;;;;;;;;;;5130569;27;20949;-70
2023/03/02 06:06:59;;;;;;;39.43;21.00;;;;;;;;;;5130808;27;20539;-71
2023/03/02 06:09:26;;;;;;;48.87;21.80;;;;;;;;;;5130785;27;20466;-71
2023/03/02 06:11:53;;;;;;;43.90;22.27;;;;;;;;;;5127716;27;20453;-71
2023/03/02 06:14:20;;;;;;;39.50;22.70;;;;;;;;;;5130310;27;20437;-71
2023/03/02 06:16:49;;;;;;;35.37;20.23;;;;;;;;;;5130785;27;20467;-71
2023/03/02 06:19:16;;;;;;;39.23;22.80;;;;;;;;;;5130428;27;20445;-70
2023/03/02 06:21:43;;;;;;;35.37;20.20;;;;;;;;;;5130019;27;20491;-71
2023/03/02 06:24:11;;;;;;;35.60;16.50;;;;;;;;;;5130224;27;20449;-70
2023/03/02 06:26:38;;;;;;;37.47;22.10;;;;;;;;;;5130349;27;20449;-71
2023/03/02 06:29:06;;;;;;;33.53;18.77;;;;;;;;;;5130147;27;20480;-71
2023/03/02 06:31:33;;;;;;;41.47;20.37;;;;;;;;;;5130208;27;21042;-71
2023/03/02 06:34:02;;;;;;;40.43;19.60;;;;;;;;;;5129862;27;20449;-71
2023/03/02 06:36:29;;;;;;;40.33;21.07;;;;;;;;;;5130114;27;20518;-71
2023/03/02 06:38:56;;;;;;;49.07;22.93;;;;;;;;;;5129839;27;20956;-71
2023/03/02 06:41:24;;;;;;;34.73;19.20;;;;;;;;;;5129573;27;20496;-71
2023/03/02 06:43:51;;;;;;;40.90;20.70;;;;;;;;;;5129441;27;20457;-70
2023/03/02 06:46:18;;;;;;;363.50;146.87;;;;;;;;;;5129763;27;20487;-70
2023/03/02 06:48:46;;;;;;;85.60;37.67;;;;;;;;;;5129933;27;20455;-70
2023/03/02 06:51:14;;;;;;;39.00;19.90;;;;;;;;;;5128476;27;20469;-70
2023/03/02 06:53:41;;;;;;;31.70;17.60;;;;;;;;;;5115868;28;20449;-72
2023/03/02 06:56:08;;;;;;;36.37;17.00;;;;;;;;;;5115892;28;20456;-71
2023/03/02 06:58:36;;;;;;;29.83;17.93;;;;;;;;;;5116167;28;20946;-71
2023/03/02 07:01:03;;;;;;;34.43;18.20;;;;;;;;;;5115929;27;20492;-71
2023/03/02 07:03:30;;;;;;;37.27;16.40;;;;;;;;;;5115881;28;20456;-71
2023/03/02 07:05:57;;;;;;;29.73;17.60;;;;;;;;;;5116014;28;20458;-71
2023/03/02 07:08:26;;;;;;;25.17;16.73;;;;;;;;;;5115929;28;20538;-71
2023/03/02 07:10:53;;;;;;;39.17;19.70;;;;;;;;;;5115839;28;20473;-71
2023/03/02 07:13:20;;;;;;;30.93;20.37;;;;;;;;;;5115500;28;20456;-70
2023/03/02 07:15:48;;;;;;;33.20;16.57;;;;;;;;;;5115727;28;20449;-70
2023/03/02 07:18:15;;;;;;;35.87;19.10;;;;;;;;;;5115894;28;20449;-70
2023/03/02 07:20:42;;;;;;;30.27;17.73;;;;;;;;;;5115632;28;20576;-70
2023/03/02 07:23:09;;;;;;;38.37;17.30;;;;;;;;;;5115510;28;20966;-71
2023/03/02 07:25:38;;;;;;;35.53;21.17;;;;;;;;;;5115622;28;20496;-70
2023/03/02 07:28:06;;;;;;;37.17;21.10;;;;;;;;;;5115873;28;20811;-70
2023/03/02 07:30:33;;;;;;;34.03;19.63;;;;;;;;;;5115841;28;20488;-70
2023/03/02 07:33:00;;;;;;;40.93;20.87;;;;;;;;;;5115533;27;20973;-70
2023/03/02 07:35:27;;;;;;;25.80;15.23;;;;;;;;;;5115417;28;20456;-70
2023/03/02 07:38:02;;;;;;;35.17;20.37;;;;;;;;;;5115428;28;20460;-71
2023/03/02 07:40:30;;;;;;;35.83;18.47;;;;;;;;;;5115185;28;20546;-71
2023/03/02 07:42:59;;;;;;;35.23;20.87;;;;;;;;;;5115216;28;20457;-70
2023/03/02 07:45:26;;;;;;;31.67;17.47;;;;;;;;;;5115279;28;20450;-70
2023/03/02 07:47:54;;;;;;;32.47;20.03;;;;;;;;;;5115206;28;20445;-70
2023/03/02 07:50:21;;;;;;;39.40;20.73;;;;;;;;;;5115048;28;20484;-70
2023/03/02 07:52:49;;;;;;;35.33;20.07;;;;;;;;;;5115116;28;20454;-70
2023/03/02 07:55:16;;;;;;;36.20;19.23;;;;;;;;;;5110936;28;20458;-70
2023/03/02 07:57:44;;;;;;;32.10;19.67;;;;;;;;;;5114995;28;20496;-70
2023/03/02 08:00:14;;;;;;;31.50;20.60;;;;;;;;;;5114996;28;20481;-70
2023/03/02 08:02:41;;;;;;;45.60;18.87;;;;;;;;;;5114682;28;20437;-70
2023/03/02 08:05:09;;;;;;;36.13;19.60;;;;;;;;;;5113474;28;20537;-70
2023/03/02 08:07:36;;;;;;;30.87;20.00;;;;;;;;;;5114849;28;20448;-70
2023/03/02 08:10:03;;;;;;;32.57;17.20;;;;;;;;;;5114541;28;20469;-70
2023/03/02 08:12:30;;;;;;;38.50;16.70;;;;;;;;;;5113902;28;20472;-70
2023/03/02 08:14:57;;;;;;;42.83;20.03;;;;;;;;;;5114350;28;20449;-70
2023/03/02 08:17:26;;;;;;;39.13;20.57;;;;;;;;;;5114301;28;20449;-70
2023/03/02 08:19:53;;;;;;;38.03;19.43;;;;;;;;;;5114541;28;20536;-71
2023/03/02 08:22:20;;;;;;;38.90;21.93;;;;;;;;;;5114206;28;20485;-70
2023/03/02 08:24:48;;;;;;;29.90;18.47;;;;;;;;;;5114248;28;20443;-70
2023/03/02 08:27:15;;;;;;;42.07;21.70;;;;;;;;;;5114311;28;20502;-70
2023/03/02 08:29:42;;;;;;;34.83;20.60;;;;;;;;;;5114100;28;20460;-71
2023/03/02 08:32:10;;;;;;;44.43;20.63;;;;;;;;;;5113830;28;20446;-71
2023/03/02 08:34:38;;;;;;;36.60;21.20;;;;;;;;;;5099703;28;20537;-70
2023/03/02 08:37:05;;;;;;;36.60;17.70;;;;;;;;;;5093853;28;20451;-70
2023/03/02 08:39:33;;;;;;;35.00;20.70;;;;;;;;;;5093885;28;20460;-70
2023/03/02 08:42:00;;;;;;;34.60;21.17;;;;;;;;;;5093745;28;20493;-70
2023/03/02 08:44:27;;;;;;;35.20;21.40;;;;;;;;;;5093899;28;20454;-70
2023/03/02 08:46:54;;;;;;;34.27;19.40;;;;;;;;;;5107236;28;20453;-70
2023/03/02 08:49:21;;;;;;;39.10;22.07;;;;;;;;;;5113261;28;20518;-70
2023/03/02 08:51:52;;;;;;;29.53;18.10;;;;;;;;;;5113926;28;20457;-70
2023/03/02 08:54:19;;;;;;;42.00;23.97;;;;;;;;;;5113714;27;20942;-70
2023/03/02 08:56:47;;;;;;;42.33;21.83;;;;;;;;;;5113761;28;20503;-69
2023/03/02 08:59:14;;;;;;;30.93;20.90;;;;;;;;;;5113647;28;20454;-69
2023/03/02 09:01:42;;;;;;;45.33;24.27;;;;;;;;;;5113666;28;20494;-69
2023/03/02 09:04:10;;;;;;;40.77;19.50;;;;;;;;;;5113324;28;20456;-69
2023/03/02 09:06:38;;;;;;;34.90;19.47;;;;;;;;;;5114099;28;20453;-70
2023/03/02 09:09:07;;;;;;;30.83;18.00;;;;;;;;;;5113515;28;20456;-70
2023/03/02 09:11:34;;;;;;;28.10;17.07;;;;;;;;;;5113358;28;20472;-70
2023/03/02 09:14:02;;;;;;;27.47;18.10;;;;;;;;;;5113410;28;20446;-69
2023/03/02 09:16:29;;;;;;;37.50;20.17;;;;;;;;;;5113157;28;20450;-70
2023/03/02 09:18:56;;;;;;;35.23;20.10;;;;;;;;;;5113831;27;20812;-70
2023/03/02 09:21:23;;;;;;;25.33;17.47;;;;;;;;;;5113398;28;20493;-70
2023/03/02 09:23:54;;;;;;;23.53;16.00;;;;;;;;;;5112452;28;20445;-69
2023/03/02 09:26:24;;;;;;;29.07;18.07;;;;;;;;;;5112416;28;20461;-69
2023/03/02 09:28:51;;;;;;;36.17;25.33;;;;;;;;;;5113387;28;20450;-69
2023/03/02 09:31:19;;;;;;;36.80;21.70;;;;;;;;;;5112576;28;20472;-69
2023/03/02 09:33:46;;;;;;;31.53;18.63;;;;;;;;;;5113319;28;20590;-69
2023/03/02 09:36:16;;;;;;;32.60;19.70;;;;;;;;;;5112939;28;20994;-70
2023/03/02 09:38:43;;;;;;;31.27;21.10;;;;;;;;;;5112734;28;20522;-70
2023/03/02 09:41:22;;;;;;;33.00;18.47;;;;;;;;;;5111195;28;20496;-70
2023/03/02 09:43:54;;;;;;;32.93;18.93;;;;;;;;;;5112003;28;20456;-70
2023/03/02 09:46:23;;;;;;;27.50;16.67;;;;;;;;;;5113612;28;20446;-70
2023/03/02 09:48:57;;;;;;;30.93;19.70;;;;;;;;;;5113141;28;20449;-70
2023/03/02 09:51:29;;;;;;;33.33;18.20;;;;;;;;;;5112969;28;20965;-69
2023/03/02 09:54:00;;;;;;;25.73;14.90;;;;;;;;;;5113314;28;20938;-69
2023/03/02 09:56:28;;;;;;;35.53;17.93;;;;;;;;;;5113241;28;20811;-69
2023/03/02 09:58:59;;;;;;;31.20;17.90;;;;;;;;;;5112865;28;20453;-69
2023/03/02 10:01:33;;;;;;;24.60;14.37;;;;;;;;;;5102411;28;20543;-70
2023/03/02 10:04:03;;;;;;;27.97;17.37;;;;;;;;;;5111357;28;20795;-71
2023/03/02 10:06:31;;;;;;;33.43;19.27;;;;;;;;;;5102732;28;20459;-71
2023/03/02 10:08:58;;;;;;;29.17;17.17;;;;;;;;;;5111436;28;21023;-70
2023/03/02 10:11:28;;;;;;;31.57;20.37;;;;;;;;;;5111772;28;20473;-71
2023/03/02 10:14:01;;;;;;;30.33;19.43;;;;;;;;;;5111235;28;20934;-71
2023/03/02 10:16:33;;;;;;;29.70;19.20;;;;;;;;;;5096141;28;20880;-70
2023/03/02 10:19:04;;;;;;;35.17;17.40;;;;;;;;;;5094439;28;20466;-71
2023/03/02 10:21:34;;;;;;;24.00;18.03;;;;;;;;;;5090646;28;20500;-70
2023/03/02 10:24:04;;;;;;;28.57;17.43;;;;;;;;;;5090632;28;20454;-71
2023/03/02 10:26:38;;;;;;;35.47;19.97;;;;;;;;;;5091061;28;20470;-71
2023/03/02 10:29:24;;;;;;;30.10;17.47;;;;;;;;;;5094971;28;20450;-71
2023/03/02 10:31:54;;;;;;;30.93;19.10;;;;;;;;;;5103518;28;20458;-71
2023/03/02 10:34:23;;;;;;;28.80;17.07;;;;;;;;;;5098042;28;20525;-71
2023/03/02 10:36:50;;;;;;;25.87;16.60;;;;;;;;;;5102816;27;20459;-71
2023/03/02 10:39:18;;;;;;;41.40;22.10;;;;;;;;;;5105037;27;20453;-71
2023/03/02 10:41:48;;;;;;;44.20;27.60;;;;;;;;;;5114083;27;20574;-71
2023/03/02 10:44:19;;;;;;;29.73;17.03;;;;;;;;;;5115629;28;20457;-71
2023/03/02 10:46:47;;;;;;;54.50;25.37;;;;;;;;;;5116414;28;20456;-71
2023/03/02 10:49:35;;;;;;;32.77;20.13;;;;;;;;;;5115285;28;20453;-71
2023/03/02 10:52:05;;;;;;;35.20;19.50;;;;;;;;;;5110675;27;20460;-71
2023/03/02 10:54:35;;;;;;;28.27;16.13;;;;;;;;;;5115416;28;20808;-71
2023/03/02 10:57:03;;;;;;;26.83;15.57;;;;;;;;;;5114676;28;20454;-71
2023/03/02 10:59:43;;;;;;;27.87;18.07;;;;;;;;;;5116331;28;20444;-71
2023/03/02 11:02:20;;;;;;;22.80;14.67;;;;;;;;;;5115695;28;20477;-71
2023/03/02 11:04:47;;;;;;;27.30;17.50;;;;;;;;;;5115774;28;20457;-71
2023/03/02 11:07:18;;;;;;;27.30;14.50;;;;;;;;;;5115441;28;20462;-72
2023/03/02 11:09:55;;;;;;;28.90;17.27;;;;;;;;;;5115689;28;20476;-71
2023/03/02 11:12:24;;;;;;;26.60;15.90;;;;;;;;;;5115845;28;20813;-71
2023/03/02 11:15:01;;;;;;;31.23;15.80;;;;;;;;;;5114952;28;20449;-71
2023/03/02 11:17:33;;;;;;;24.90;14.07;;;;;;;;;;5114011;28;20536;-71
2023/03/02 11:20:02;;;;;;;27.50;17.37;;;;;;;;;;5113541;28;20473;-71
2023/03/02 11:22:33;;;;;;;44.33;27.50;;;;;;;;;;5113551;28;20496;-71
2023/03/02 11:25:02;;;;;;;31.40;17.10;;;;;;;;;;5113075;27;20462;-72
2023/03/02 11:27:30;;;;;;;22.70;16.10;;;;;;;;;;5113536;28;20452;-71
2023/03/02 11:29:58;;;;;;;22.20;14.67;;;;;;;;;;5113410;28;20489;-72
2023/03/02 11:32:29;;;;;;;25.83;14.23;;;;;;;;;;5114405;28;20452;-71
2023/03/02 11:34:58;;;;;;;23.53;13.33;;;;;;;;;;5114197;28;20464;-71
2023/03/02 11:37:29;;;;;;;19.80;14.20;;;;;;;;;;5114638;28;20457;-71
2023/03/02 11:40:13;;;;;;;24.63;12.83;;;;;;;;;;5115142;28;20859;-71
2023/03/02 11:42:42;;;;;;;22.63;12.67;;;;;;;;;;5114268;27;20492;-72
2023/03/02 11:45:17;;;;;;;21.10;12.73;;;;;;;;;;5114089;28;20461;-71
2023/03/02 11:47:46;;;;;;;21.27;12.87;;;;;;;;;;5115048;28;20456;-71
2023/03/02 11:50:15;;;;;;;26.70;18.80;;;;;;;;;;5114908;28;20473;-71
2023/03/02 11:52:46;;;;;;;18.93;11.53;;;;;;;;;;5114947;28;20476;-70
2023/03/02 11:55:21;;;;;;;19.40;11.50;;;;;;;;;;5114376;28;20449;-71
2023/03/02 11:57:49;;;;;;;14.43;9.33;;;;;;;;;;5114944;28;20453;-71
2023/03/02 12:00:25;;;;;;;15.57;10.53;;;;;;;;;;5114485;28;20570;-71
2023/03/02 12:02:59;;;;;;;15.93;10.40;;;;;;;;;;5114682;28;20481;-71
2023/03/02 12:05:27;;;;;;;17.00;11.30;;;;;;;;;;5114243;28;20460;-72
2023/03/02 12:07:58;;;;;;;15.23;11.00;;;;;;;;;;5114585;28;20449;-71
2023/03/02 12:10:32;;;;;;;21.57;13.40;;;;;;;;;;5113950;28;20819;-72
2023/03/02 12:13:03;;;;;;;20.90;11.00;;;;;;;;;;5114815;28;21060;-72
2023/03/02 12:15:40;;;;;;;17.57;12.90;;;;;;;;;;5114332;28;20458;-72
2023/03/02 12:18:28;;;;;;;18.70;11.90;;;;;;;;;;5114474;28;20455;-72
2023/03/02 12:21:02;;;;;;;23.20;13.30;;;;;;;;;;5114331;28;20473;-72
2023/03/02 12:23:30;;;;;;;17.93;11.63;;;;;;;;;;5114137;28;20489;-74
2023/03/02 12:26:06;;;;;;;19.03;10.13;;;;;;;;;;5114371;28;20938;-72
2023/03/02 12:28:35;;;;;;;14.80;10.53;;;;;;;;;;5114187;28;20817;-72
2023/03/02 12:31:03;;;;;;;17.80;9.90;;;;;;;;;;5113888;28;20878;-72
2023/03/02 12:33:30;;;;;;;17.30;10.67;;;;;;;;;;5114304;28;20913;-72
2023/03/02 12:36:11;;;;;;;17.03;10.93;;;;;;;;;;5115208;28;20442;-73
2023/03/02 12:38:39;;;;;;;15.03;10.23;;;;;;;;;;5114882;28;20499;-74
2023/03/02 12:41:12;;;;;;;17.40;11.60;;;;;;;;;;5113692;28;20551;-71
2023/03/02 12:43:42;;;;;;;13.87;10.13;;;;;;;;;;5114231;28;20469;-72
2023/03/02 12:46:27;;;;;;;16.97;11.60;;;;;;;;;;5113823;28;20810;-72
2023/03/02 12:49:09;;;;;;;15.70;10.07;;;;;;;;;;5113199;28;20811;-71
2023/03/02 12:51:45;;;;;;;16.90;10.23;;;;;;;;;;5113289;27;21012;-74
2023/03/02 12:54:14;;;;;;;16.50;10.50;;;;;;;;;;5113227;28;20449;-72
2023/03/02 12:56:43;;;;;;;18.13;10.40;;;;;;;;;;5113385;28;20818;-73
2023/03/02 12:59:19;;;;;;;17.00;10.13;;;;;;;;;;5113212;28;20464;-72
2023/03/02 13:01:46;;;;;;;23.17;8.90;;;;;;;;;;5113639;28;20555;-73
2023/03/02 13:04:20;;;;;;;13.33;10.17;;;;;;;;;;5113456;28;20496;-72
2023/03/02 13:06:48;;;;;;;14.37;7.87;;;;;;;;;;5113913;28;20446;-72
2023/03/02 13:09:15;;;;;;;11.27;9.00;;;;;;;;;;5113578;28;20575;-73
2023/03/02 13:11:44;;;;;;;21.97;10.10;;;;;;;;;;5113496;28;20466;-72
2023/03/02 13:14:18;;;;;;;14.73;9.27;;;;;;;;;;5113223;28;20445;-72
2023/03/02 13:16:54;;;;;;;19.10;10.40;;;;;;;;;;5113538;28;20449;-72
2023/03/02 13:19:21;;;;;;;17.23;10.13;;;;;;;;;;5113000;28;20444;-72
2023/03/02 13:21:49;;;;;;;15.47;10.57;;;;;;;;;;5113584;28;20840;-72
2023/03/02 13:24:32;;;;;;;18.77;11.00;;;;;;;;;;5112567;28;21022;-72
2023/03/02 13:27:04;;;;;;;15.77;9.20;;;;;;;;;;5113374;28;20523;-72
2023/03/02 13:29:31;;;;;;;17.70;9.60;;;;;;;;;;5113548;28;20452;-72
2023/03/02 13:31:59;;;;;;;13.70;8.30;;;;;;;;;;5113434;28;20903;-72
2023/03/02 13:34:29;;;;;;;17.03;9.47;;;;;;;;;;5113316;28;20456;-74
2023/03/02 13:36:57;;;;;;;14.97;8.77;;;;;;;;;;5113377;28;20962;-73
2023/03/02 13:39:27;;;;;;;16.00;11.13;;;;;;;;;;5113262;28;20460;-74
2023/03/02 13:41:55;;;;;;;15.13;9.80;;;;;;;;;;5112845;28;20987;-73
2023/03/02 13:44:28;;;;;;;18.80;9.40;;;;;;;;;;5112905;28;20485;-73
2023/03/02 13:46:56;;;;;;;14.47;9.53;;;;;;;;;;5113408;28;20470;-74
2023/03/02 13:49:27;;;;;;;14.00;9.30;;;;;;;;;;5113193;27;20470;-73
2023/03/02 13:51:58;;;;;;;19.20;9.30;;;;;;;;;;5113341;28;20492;-73
2023/03/02 13:54:26;;;;;;;14.80;9.37;;;;;;;;;;5112806;28;20442;-73
2023/03/02 13:56:55;;;;;;;14.90;9.60;;;;;;;;;;5113438;28;20456;-74
2023/03/02 13:59:23;;;;;;;10.90;6.43;;;;;;;;;;5112288;28;20958;-73
2023/03/02 14:01:51;;;;;;;12.33;8.03;;;;;;;;;;5113894;28;20449;-74
2023/03/02 14:04:21;;;;;;;17.13;8.37;;;;;;;;;;5116858;27;20576;-73
2023/03/02 14:06:49;;;;;;;16.23;7.97;;;;;;;;;;5117275;28;20454;-73
2023/03/02 14:09:16;;;;;;;23.57;9.80;;;;;;;;;;5117087;28;20454;-73
2023/03/02 14:11:45;;;;;;;12.60;8.73;;;;;;;;;;5117082;28;20472;-75
2023/03/02 14:14:13;;;;;;;13.77;9.60;;;;;;;;;;5116934;28;20448;-73
2023/03/02 14:16:41;;;;;;;15.37;9.07;;;;;;;;;;5117119;27;20446;-74
2023/03/02 14:19:10;;;;;;;15.33;8.60;;;;;;;;;;5116864;28;20968;-73
2023/03/02 14:21:37;;;;;;;14.60;9.47;;;;;;;;;;5117017;28;20996;-74
2023/03/02 14:24:04;;;;;;;15.27;9.50;;;;;;;;;;5116377;28;20485;-73
2023/03/02 14:26:34;;;;;;;13.33;9.90;;;;;;;;;;5116760;28;20460;-73
2023/03/02 14:29:02;;;;;;;16.87;10.73;;;;;;;;;;5116081;28;20452;-73
2023/03/02 14:31:29;;;;;;;16.00;8.30;;;;;;;;;;5116700;28;20996;-73
2023/03/02 14:33:57;;;;;;;16.53;8.70;;;;;;;;;;5116031;28;20958;-73